KLM73Z EHAM-ENGM
Flight info
| Callsign | KLM73Z |
|---|---|
| Flight time | 1h 22m |
| Altitude | 39000 |
| Route | ANDIK Z733 KONOM DCT AMADA DCT PIPEX M609 RIPAM |
| Aircraft | B737/M-SDE2E3FGHIRWXY/LB1 |
Departure
| Time | 2026-05-07 09:11 |
|---|---|
| Airport | Amsterdam Airport Schiphol (EHAM) |
Arrival
| Time | 2026-05-07 10:33 |
|---|---|
| Airport | Oslo-Gardermoen International Airport (ENGM) |
| Time | Latitude | Longitude | Altitude | Speed | Heading |
|---|---|---|---|---|---|
| 2026-05-07 08:49 | 52.30747 | 4.76901 | -2 ft | 0 kts | 51° |
| 2026-05-07 09:00 | 52.30742 | 4.76892 | -2 ft | 2 kts | 51° |
| 2026-05-07 09:00 | 52.30732 | 4.76871 | -2 ft | 2 kts | 57° |
| 2026-05-07 09:01 | 52.30723 | 4.76849 | -2 ft | 2 kts | 57° |
| 2026-05-07 09:01 | 52.30716 | 4.76825 | -2 ft | 2 kts | 82° |
| 2026-05-07 09:01 | 52.30716 | 4.76798 | -2 ft | 2 kts | 95° |
| 2026-05-07 09:01 | 52.30716 | 4.76787 | -2 ft | 0 kts | 95° |
| 2026-05-07 09:04 | 52.30700 | 4.76827 | -2 ft | 7 kts | 142° |
| 2026-05-07 09:04 | 52.30658 | 4.76900 | -2 ft | 10 kts | 102° |
| 2026-05-07 09:04 | 52.30632 | 4.77001 | -2 ft | 10 kts | 143° |
| 2026-05-07 09:05 | 52.30573 | 4.77064 | -2 ft | 10 kts | 148° |
| 2026-05-07 09:05 | 52.30510 | 4.77071 | -2 ft | 10 kts | 213° |
| 2026-05-07 09:05 | 52.30468 | 4.76975 | -2 ft | 12 kts | 238° |
| 2026-05-07 09:05 | 52.30420 | 4.76849 | -2 ft | 14 kts | 237° |
| 2026-05-07 09:06 | 52.30370 | 4.76718 | -2 ft | 13 kts | 237° |
| 2026-05-07 09:06 | 52.30307 | 4.76554 | -2 ft | 21 kts | 238° |
| 2026-05-07 09:06 | 52.30222 | 4.76333 | -2 ft | 24 kts | 238° |
| 2026-05-07 09:06 | 52.30135 | 4.76103 | -2 ft | 23 kts | 238° |
| 2026-05-07 09:07 | 52.30050 | 4.75883 | -2 ft | 24 kts | 238° |
| 2026-05-07 09:07 | 52.29953 | 4.75629 | -2 ft | 27 kts | 238° |
| 2026-05-07 09:07 | 52.29860 | 4.75386 | -2 ft | 18 kts | 238° |
| 2026-05-07 09:07 | 52.29840 | 4.75209 | -2 ft | 16 kts | 295° |
| 2026-05-07 09:08 | 52.29913 | 4.75062 | -2 ft | 18 kts | 311° |
| 2026-05-07 09:08 | 52.30010 | 4.74883 | -2 ft | 23 kts | 311° |
| 2026-05-07 09:08 | 52.30122 | 4.74677 | 7 ft | 24 kts | 311° |
| 2026-05-07 09:08 | 52.30234 | 4.74469 | 9 ft | 25 kts | 311° |
| 2026-05-07 09:09 | 52.30352 | 4.74248 | -2 ft | 27 kts | 312° |
| 2026-05-07 09:09 | 52.30424 | 4.74090 | -2 ft | 14 kts | 280° |
| 2026-05-07 09:09 | 52.30416 | 4.74023 | -2 ft | 1 kts | 245° |
| 2026-05-07 09:09 | 52.30411 | 4.73997 | -2 ft | 4 kts | 256° |
| 2026-05-07 09:10 | 52.30408 | 4.73914 | -2 ft | 11 kts | 272° |
| 2026-05-07 09:10 | 52.30412 | 4.73787 | -4 ft | 7 kts | 273° |
| 2026-05-07 09:10 | 52.30454 | 4.73760 | -4 ft | 7 kts | 4° |
| 2026-05-07 09:10 | 52.30748 | 4.73787 | -2 ft | 92 kts | 4° |
| 2026-05-07 09:11 | 52.31669 | 4.73897 | 91 ft | 164 kts | 5° |
| 2026-05-07 09:11 | 52.32820 | 4.74013 | 1254 ft | 160 kts | 3° |
| 2026-05-07 09:11 | 52.33914 | 4.74198 | 2556 ft | 164 kts | 15° |
| 2026-05-07 09:11 | 52.35061 | 4.74989 | 3037 ft | 192 kts | 25° |
| 2026-05-07 09:12 | 52.36373 | 4.75927 | 3335 ft | 221 kts | 23° |
| 2026-05-07 09:12 | 52.37820 | 4.77008 | 3802 ft | 238 kts | 31° |
| 2026-05-07 09:12 | 52.39127 | 4.78803 | 4399 ft | 253 kts | 40° |
| 2026-05-07 09:12 | 52.40491 | 4.80707 | 5293 ft | 260 kts | 39° |
| 2026-05-07 09:13 | 52.41892 | 4.82606 | 6268 ft | 264 kts | 39° |
| 2026-05-07 09:13 | 52.43327 | 4.84549 | 7115 ft | 270 kts | 39° |
| 2026-05-07 09:13 | 52.44788 | 4.86539 | 8017 ft | 275 kts | 39° |
| 2026-05-07 09:13 | 52.46274 | 4.88573 | 8978 ft | 280 kts | 39° |
| 2026-05-07 09:14 | 52.47789 | 4.90653 | 9931 ft | 286 kts | 39° |
| 2026-05-07 09:14 | 52.49343 | 4.92793 | 10634 ft | 300 kts | 39° |
| 2026-05-07 09:14 | 52.51013 | 4.95098 | 10979 ft | 324 kts | 39° |
| 2026-05-07 09:14 | 52.52763 | 4.97517 | 11769 ft | 332 kts | 39° |
| 2026-05-07 09:15 | 52.54538 | 4.99977 | 12701 ft | 335 kts | 39° |
| 2026-05-07 09:15 | 52.56329 | 5.02462 | 13646 ft | 339 kts | 39° |
| 2026-05-07 09:15 | 52.58126 | 5.04956 | 14464 ft | 344 kts | 39° |
| 2026-05-07 09:15 | 52.59973 | 5.07524 | 15313 ft | 349 kts | 39° |
| 2026-05-07 09:16 | 52.61838 | 5.10123 | 16197 ft | 353 kts | 39° |
| 2026-05-07 09:16 | 52.63732 | 5.12765 | 17060 ft | 358 kts | 39° |
| 2026-05-07 09:16 | 52.65601 | 5.15375 | 17908 ft | 363 kts | 39° |
| 2026-05-07 09:16 | 52.67518 | 5.18054 | 18683 ft | 369 kts | 39° |
| 2026-05-07 09:17 | 52.69485 | 5.20805 | 19450 ft | 372 kts | 39° |
| 2026-05-07 09:17 | 52.71471 | 5.23576 | 20269 ft | 375 kts | 38° |
| 2026-05-07 09:17 | 52.73668 | 5.25932 | 21015 ft | 379 kts | 26° |
| 2026-05-07 09:17 | 52.76127 | 5.27556 | 21792 ft | 382 kts | 15° |
| 2026-05-07 09:18 | 52.78741 | 5.28403 | 22545 ft | 385 kts | 7° |
| 2026-05-07 09:18 | 52.81381 | 5.29002 | 23259 ft | 389 kts | 7° |
| 2026-05-07 09:18 | 52.84084 | 5.29605 | 23910 ft | 394 kts | 7° |
| 2026-05-07 09:18 | 52.86809 | 5.30245 | 24532 ft | 396 kts | 7° |
| 2026-05-07 09:19 | 52.89542 | 5.30908 | 25186 ft | 398 kts | 8° |
| 2026-05-07 09:19 | 52.92291 | 5.31586 | 25807 ft | 401 kts | 8° |
| 2026-05-07 09:19 | 52.95063 | 5.32275 | 26422 ft | 403 kts | 8° |
| 2026-05-07 09:19 | 52.97849 | 5.32969 | 27020 ft | 406 kts | 8° |
| 2026-05-07 09:20 | 53.00616 | 5.33659 | 27600 ft | 408 kts | 8° |
| 2026-05-07 09:20 | 53.03431 | 5.34361 | 28211 ft | 410 kts | 8° |
| 2026-05-07 09:20 | 53.06274 | 5.35072 | 28728 ft | 414 kts | 8° |
| 2026-05-07 09:20 | 53.09134 | 5.35787 | 29297 ft | 416 kts | 8° |
| 2026-05-07 09:21 | 53.12008 | 5.36506 | 29786 ft | 419 kts | 8° |
| 2026-05-07 09:21 | 53.14911 | 5.37233 | 30227 ft | 423 kts | 8° |
| 2026-05-07 09:21 | 53.17831 | 5.37965 | 30652 ft | 425 kts | 8° |
| 2026-05-07 09:21 | 53.20723 | 5.38691 | 31038 ft | 427 kts | 8° |
| 2026-05-07 09:22 | 53.23671 | 5.39432 | 31396 ft | 430 kts | 8° |
| 2026-05-07 09:22 | 53.26638 | 5.40179 | 31762 ft | 432 kts | 9° |
| 2026-05-07 09:22 | 53.29609 | 5.40929 | 32220 ft | 431 kts | 9° |
| 2026-05-07 09:22 | 53.32571 | 5.41676 | 32779 ft | 428 kts | 9° |
| 2026-05-07 09:23 | 53.35512 | 5.42420 | 33258 ft | 427 kts | 9° |
| 2026-05-07 09:23 | 53.38446 | 5.43163 | 33691 ft | 427 kts | 9° |
| 2026-05-07 09:23 | 53.41351 | 5.43900 | 34097 ft | 427 kts | 9° |
| 2026-05-07 09:23 | 53.44293 | 5.44647 | 34461 ft | 426 kts | 9° |
| 2026-05-07 09:24 | 53.47232 | 5.45394 | 34766 ft | 427 kts | 8° |
| 2026-05-07 09:24 | 53.50185 | 5.46146 | 35059 ft | 428 kts | 8° |
| 2026-05-07 09:24 | 53.53134 | 5.46898 | 35362 ft | 429 kts | 8° |
| 2026-05-07 09:24 | 53.56089 | 5.47653 | 35665 ft | 429 kts | 8° |
| 2026-05-07 09:25 | 53.59003 | 5.48398 | 35955 ft | 430 kts | 8° |
| 2026-05-07 09:25 | 53.61964 | 5.49160 | 36213 ft | 431 kts | 9° |
| 2026-05-07 09:25 | 53.64895 | 5.50312 | 36407 ft | 434 kts | 17° |
| 2026-05-07 09:25 | 53.67761 | 5.51977 | 36682 ft | 435 kts | 19° |
| 2026-05-07 09:26 | 53.70607 | 5.53731 | 36918 ft | 437 kts | 19° |
| 2026-05-07 09:26 | 53.73471 | 5.55527 | 37127 ft | 439 kts | 19° |
| 2026-05-07 09:26 | 53.76337 | 5.57321 | 37374 ft | 440 kts | 19° |
| 2026-05-07 09:26 | 53.79180 | 5.59088 | 37610 ft | 441 kts | 19° |
| 2026-05-07 09:27 | 53.82075 | 5.60874 | 37824 ft | 443 kts | 19° |
| 2026-05-07 09:27 | 53.84975 | 5.62654 | 38059 ft | 444 kts | 19° |
| 2026-05-07 09:27 | 53.90807 | 5.66224 | 38516 ft | 446 kts | 19° |
| 2026-05-07 09:28 | 53.93732 | 5.68014 | 38763 ft | 447 kts | 19° |
| 2026-05-07 09:28 | 53.96620 | 5.69785 | 38962 ft | 447 kts | 19° |
| 2026-05-07 09:28 | 53.99551 | 5.71586 | 39085 ft | 448 kts | 19° |
| 2026-05-07 09:29 | 54.05434 | 5.75207 | 39085 ft | 449 kts | 19° |
| 2026-05-07 09:29 | 54.11263 | 5.78809 | 39087 ft | 447 kts | 19° |
| 2026-05-07 09:30 | 54.17101 | 5.82426 | 39087 ft | 445 kts | 19° |
| 2026-05-07 09:30 | 54.22914 | 5.86039 | 39089 ft | 444 kts | 19° |
| 2026-05-07 09:31 | 54.28721 | 5.89658 | 39088 ft | 443 kts | 19° |
| 2026-05-07 09:31 | 54.34469 | 5.93252 | 39089 ft | 442 kts | 19° |
| 2026-05-07 09:32 | 54.40252 | 5.96879 | 39091 ft | 442 kts | 19° |
| 2026-05-07 09:32 | 54.46043 | 6.00521 | 39093 ft | 443 kts | 19° |
| 2026-05-07 09:33 | 54.51799 | 6.04152 | 39095 ft | 444 kts | 19° |
| 2026-05-07 09:33 | 54.57608 | 6.07828 | 39100 ft | 445 kts | 19° |
| 2026-05-07 09:34 | 54.63435 | 6.11527 | 39097 ft | 446 kts | 19° |
| 2026-05-07 09:34 | 54.69269 | 6.15241 | 39095 ft | 447 kts | 19° |
| 2026-05-07 09:35 | 54.75079 | 6.18951 | 39095 ft | 448 kts | 19° |
| 2026-05-07 09:35 | 54.80933 | 6.22702 | 39095 ft | 448 kts | 19° |
| 2026-05-07 09:36 | 54.86789 | 6.26465 | 39095 ft | 448 kts | 19° |
| 2026-05-07 09:36 | 54.92607 | 6.30216 | 39097 ft | 448 kts | 19° |
| 2026-05-07 09:37 | 54.98456 | 6.33997 | 39097 ft | 448 kts | 19° |
| 2026-05-07 09:37 | 55.04310 | 6.37743 | 39105 ft | 447 kts | 18° |
| 2026-05-07 09:38 | 55.10128 | 6.41391 | 39101 ft | 447 kts | 18° |
| 2026-05-07 09:38 | 55.15981 | 6.45067 | 39103 ft | 446 kts | 18° |
| 2026-05-07 09:39 | 55.21821 | 6.48758 | 39102 ft | 446 kts | 18° |
| 2026-05-07 09:39 | 55.27660 | 6.52466 | 39101 ft | 446 kts | 18° |
| 2026-05-07 09:40 | 55.33486 | 6.56179 | 39101 ft | 445 kts | 18° |
| 2026-05-07 09:40 | 55.39274 | 6.59880 | 39104 ft | 445 kts | 18° |
| 2026-05-07 09:41 | 55.45101 | 6.63617 | 39104 ft | 445 kts | 18° |
| 2026-05-07 09:41 | 55.50924 | 6.67363 | 39099 ft | 445 kts | 18° |
| 2026-05-07 09:42 | 55.56705 | 6.71094 | 39100 ft | 445 kts | 18° |
| 2026-05-07 09:42 | 55.62522 | 6.74860 | 39103 ft | 445 kts | 18° |
| 2026-05-07 09:43 | 55.68344 | 6.78642 | 39105 ft | 445 kts | 18° |
| 2026-05-07 09:43 | 55.74141 | 6.82418 | 39103 ft | 446 kts | 18° |
| 2026-05-07 09:44 | 55.79968 | 6.86227 | 39104 ft | 446 kts | 18° |
| 2026-05-07 09:44 | 55.85798 | 6.90050 | 39106 ft | 446 kts | 18° |
| 2026-05-07 09:45 | 55.91595 | 6.93862 | 39110 ft | 447 kts | 18° |
| 2026-05-07 09:45 | 55.97438 | 6.97719 | 39109 ft | 447 kts | 18° |
| 2026-05-07 09:46 | 56.03242 | 7.01561 | 39110 ft | 447 kts | 18° |
| 2026-05-07 09:46 | 56.09083 | 7.05441 | 39102 ft | 447 kts | 18° |
| 2026-05-07 09:47 | 56.14926 | 7.09334 | 39102 ft | 447 kts | 18° |
| 2026-05-07 09:47 | 56.20719 | 7.13207 | 39115 ft | 447 kts | 18° |
| 2026-05-07 09:48 | 56.26549 | 7.17117 | 39109 ft | 447 kts | 18° |
| 2026-05-07 09:48 | 56.32380 | 7.21040 | 39102 ft | 447 kts | 18° |
| 2026-05-07 09:49 | 56.38173 | 7.24951 | 39104 ft | 447 kts | 18° |
| 2026-05-07 09:49 | 56.43995 | 7.28894 | 39113 ft | 446 kts | 18° |
| 2026-05-07 09:50 | 56.49813 | 7.32847 | 39107 ft | 446 kts | 18° |
| 2026-05-07 09:50 | 56.55634 | 7.36815 | 39105 ft | 446 kts | 18° |
| 2026-05-07 09:51 | 56.61412 | 7.40767 | 39100 ft | 446 kts | 18° |
| 2026-05-07 09:51 | 56.67226 | 7.44757 | 39103 ft | 447 kts | 18° |
| 2026-05-07 09:52 | 56.73039 | 7.48759 | 39107 ft | 447 kts | 18° |
| 2026-05-07 09:52 | 56.78866 | 7.52784 | 39102 ft | 447 kts | 18° |
| 2026-05-07 09:53 | 56.84701 | 7.56828 | 39101 ft | 448 kts | 18° |
| 2026-05-07 09:53 | 56.90502 | 7.60862 | 39105 ft | 448 kts | 18° |
| 2026-05-07 09:54 | 56.96349 | 7.64941 | 39103 ft | 449 kts | 18° |
| 2026-05-07 09:54 | 57.02190 | 7.69030 | 39103 ft | 449 kts | 18° |
| 2026-05-07 09:55 | 57.07993 | 7.73107 | 39104 ft | 449 kts | 18° |
| 2026-05-07 09:55 | 57.13847 | 7.77233 | 39105 ft | 450 kts | 18° |
| 2026-05-07 09:56 | 57.18711 | 7.80672 | 39106 ft | 450 kts | 18° |
| 2026-05-07 09:56 | 57.25507 | 7.85493 | 39102 ft | 450 kts | 18° |
| 2026-05-07 09:57 | 57.31356 | 7.89657 | 39107 ft | 450 kts | 18° |
| 2026-05-07 09:57 | 57.36225 | 7.93135 | 39105 ft | 450 kts | 18° |
| 2026-05-07 09:58 | 57.43018 | 7.98003 | 39108 ft | 451 kts | 18° |
| 2026-05-07 09:58 | 57.47886 | 8.01504 | 39106 ft | 451 kts | 18° |
| 2026-05-07 09:59 | 57.53741 | 8.05728 | 39112 ft | 451 kts | 18° |
| 2026-05-07 09:59 | 57.59592 | 8.09964 | 39111 ft | 451 kts | 18° |
| 2026-05-07 10:00 | 57.65400 | 8.14183 | 39110 ft | 451 kts | 18° |
| 2026-05-07 10:00 | 57.71246 | 8.18445 | 39112 ft | 450 kts | 18° |
| 2026-05-07 10:01 | 57.77064 | 8.22701 | 39115 ft | 450 kts | 18° |
| 2026-05-07 10:01 | 57.82901 | 8.26984 | 39112 ft | 450 kts | 18° |
| 2026-05-07 10:02 | 57.88748 | 8.31291 | 39113 ft | 451 kts | 18° |
| 2026-05-07 10:02 | 57.94595 | 8.35613 | 39109 ft | 451 kts | 18° |
| 2026-05-07 10:03 | 58.00405 | 8.39922 | 39113 ft | 451 kts | 18° |
| 2026-05-07 10:03 | 58.06258 | 8.44279 | 39115 ft | 452 kts | 18° |
| 2026-05-07 10:04 | 58.12110 | 8.48651 | 39112 ft | 452 kts | 18° |
| 2026-05-07 10:04 | 58.17923 | 8.53008 | 39112 ft | 452 kts | 18° |
| 2026-05-07 10:05 | 58.23783 | 8.57417 | 39110 ft | 452 kts | 18° |
| 2026-05-07 10:05 | 58.29639 | 8.61838 | 39112 ft | 452 kts | 18° |
| 2026-05-07 10:06 | 58.35455 | 8.66245 | 39010 ft | 455 kts | 18° |
| 2026-05-07 10:06 | 58.38425 | 8.68498 | 38423 ft | 460 kts | 18° |
| 2026-05-07 10:06 | 58.41386 | 8.70752 | 37835 ft | 457 kts | 18° |
| 2026-05-07 10:06 | 58.44337 | 8.73006 | 37209 ft | 455 kts | 17° |
| 2026-05-07 10:07 | 58.47282 | 8.75258 | 36601 ft | 453 kts | 17° |
| 2026-05-07 10:07 | 58.50200 | 8.77494 | 36161 ft | 446 kts | 17° |
| 2026-05-07 10:07 | 58.53007 | 8.79653 | 35694 ft | 436 kts | 16° |
| 2026-05-07 10:07 | 58.55802 | 8.81804 | 35229 ft | 428 kts | 16° |
| 2026-05-07 10:08 | 58.58536 | 8.83910 | 34781 ft | 420 kts | 15° |
| 2026-05-07 10:08 | 58.61227 | 8.85985 | 34352 ft | 412 kts | 15° |
| 2026-05-07 10:08 | 58.63877 | 8.88028 | 33896 ft | 408 kts | 15° |
| 2026-05-07 10:08 | 58.66510 | 8.90058 | 33409 ft | 406 kts | 15° |
| 2026-05-07 10:09 | 58.69118 | 8.92073 | 32968 ft | 402 kts | 15° |
| 2026-05-07 10:09 | 58.71704 | 8.94077 | 32555 ft | 399 kts | 15° |
| 2026-05-07 10:09 | 58.74238 | 8.96044 | 32137 ft | 396 kts | 15° |
| 2026-05-07 10:09 | 58.76795 | 8.98032 | 31713 ft | 393 kts | 14° |
| 2026-05-07 10:10 | 58.79322 | 9.00000 | 31327 ft | 390 kts | 14° |
| 2026-05-07 10:10 | 58.81838 | 9.01964 | 30900 ft | 388 kts | 14° |
| 2026-05-07 10:10 | 58.84318 | 9.04056 | 30480 ft | 391 kts | 20° |
| 2026-05-07 10:10 | 58.86599 | 9.06862 | 30076 ft | 396 kts | 30° |
| 2026-05-07 10:11 | 58.88767 | 9.10137 | 29636 ft | 394 kts | 32° |
| 2026-05-07 10:11 | 58.90894 | 9.13474 | 29185 ft | 391 kts | 32° |
| 2026-05-07 10:11 | 58.92991 | 9.16786 | 28741 ft | 387 kts | 32° |
| 2026-05-07 10:11 | 58.95079 | 9.20067 | 28312 ft | 384 kts | 32° |
| 2026-05-07 10:12 | 58.97128 | 9.23264 | 27861 ft | 381 kts | 32° |
| 2026-05-07 10:12 | 58.99195 | 9.26475 | 27432 ft | 378 kts | 32° |
| 2026-05-07 10:12 | 59.01244 | 9.29650 | 27012 ft | 376 kts | 32° |
| 2026-05-07 10:12 | 59.03286 | 9.32813 | 26581 ft | 374 kts | 32° |
| 2026-05-07 10:13 | 59.05317 | 9.35962 | 26155 ft | 372 kts | 32° |
| 2026-05-07 10:13 | 59.07334 | 9.39094 | 25738 ft | 371 kts | 32° |
| 2026-05-07 10:13 | 59.09346 | 9.42223 | 25303 ft | 369 kts | 32° |
| 2026-05-07 10:13 | 59.11321 | 9.45301 | 24893 ft | 368 kts | 32° |
| 2026-05-07 10:14 | 59.13314 | 9.48409 | 24455 ft | 367 kts | 32° |
| 2026-05-07 10:14 | 59.15306 | 9.51521 | 24024 ft | 366 kts | 33° |
| 2026-05-07 10:14 | 59.17295 | 9.54635 | 23547 ft | 366 kts | 33° |
| 2026-05-07 10:14 | 59.19294 | 9.57700 | 23051 ft | 363 kts | 30° |
| 2026-05-07 10:15 | 59.21378 | 9.60488 | 22504 ft | 362 kts | 27° |
| 2026-05-07 10:15 | 59.23488 | 9.63139 | 22050 ft | 359 kts | 26° |
| 2026-05-07 10:15 | 59.25591 | 9.65764 | 21611 ft | 357 kts | 27° |
| 2026-05-07 10:15 | 59.27646 | 9.68362 | 21169 ft | 355 kts | 27° |
| 2026-05-07 10:16 | 59.29701 | 9.70995 | 20747 ft | 352 kts | 27° |
| 2026-05-07 10:16 | 59.31740 | 9.73624 | 20314 ft | 350 kts | 27° |
| 2026-05-07 10:16 | 59.33750 | 9.76305 | 19895 ft | 349 kts | 31° |
| 2026-05-07 10:16 | 59.35659 | 9.79238 | 19490 ft | 348 kts | 34° |
| 2026-05-07 10:17 | 59.37498 | 9.82223 | 19085 ft | 346 kts | 35° |
| 2026-05-07 10:17 | 59.39343 | 9.85251 | 18677 ft | 344 kts | 35° |
| 2026-05-07 10:17 | 59.41181 | 9.88251 | 18241 ft | 343 kts | 35° |
| 2026-05-07 10:17 | 59.43019 | 9.91231 | 17772 ft | 341 kts | 35° |
| 2026-05-07 10:18 | 59.44852 | 9.94187 | 17319 ft | 339 kts | 35° |
| 2026-05-07 10:18 | 59.46652 | 9.97083 | 16883 ft | 337 kts | 35° |
| 2026-05-07 10:18 | 59.48460 | 9.99991 | 16487 ft | 333 kts | 35° |
| 2026-05-07 10:18 | 59.50248 | 10.02867 | 16068 ft | 330 kts | 35° |
| 2026-05-07 10:19 | 59.52022 | 10.05724 | 15643 ft | 328 kts | 35° |
| 2026-05-07 10:19 | 59.53776 | 10.08550 | 15314 ft | 322 kts | 35° |
| 2026-05-07 10:19 | 59.55484 | 10.11305 | 14935 ft | 320 kts | 35° |
| 2026-05-07 10:19 | 59.57209 | 10.14090 | 14522 ft | 319 kts | 36° |
| 2026-05-07 10:20 | 59.58921 | 10.16858 | 14110 ft | 316 kts | 36° |
| 2026-05-07 10:20 | 59.60618 | 10.19607 | 13716 ft | 314 kts | 36° |
| 2026-05-07 10:20 | 59.62306 | 10.22346 | 13271 ft | 313 kts | 36° |
| 2026-05-07 10:20 | 59.63980 | 10.25062 | 12861 ft | 310 kts | 36° |
| 2026-05-07 10:21 | 59.65619 | 10.27724 | 12471 ft | 307 kts | 36° |
| 2026-05-07 10:21 | 59.67262 | 10.30398 | 12055 ft | 305 kts | 36° |
| 2026-05-07 10:21 | 59.68898 | 10.33059 | 11680 ft | 302 kts | 37° |
| 2026-05-07 10:21 | 59.70513 | 10.35690 | 11353 ft | 297 kts | 37° |
| 2026-05-07 10:22 | 59.72071 | 10.38236 | 11252 ft | 285 kts | 37° |
| 2026-05-07 10:22 | 59.73556 | 10.40664 | 11111 ft | 275 kts | 36° |
| 2026-05-07 10:22 | 59.75007 | 10.43043 | 11073 ft | 268 kts | 37° |
| 2026-05-07 10:22 | 59.76427 | 10.45384 | 11062 ft | 261 kts | 37° |
| 2026-05-07 10:23 | 59.77791 | 10.47641 | 10974 ft | 248 kts | 37° |
| 2026-05-07 10:23 | 59.79097 | 10.49806 | 10716 ft | 242 kts | 37° |
| 2026-05-07 10:23 | 59.80373 | 10.51921 | 10284 ft | 245 kts | 37° |
| 2026-05-07 10:23 | 59.81718 | 10.54140 | 9756 ft | 254 kts | 37° |
| 2026-05-07 10:24 | 59.83081 | 10.56397 | 9395 ft | 255 kts | 38° |
| 2026-05-07 10:24 | 59.84440 | 10.58652 | 9096 ft | 252 kts | 38° |
| 2026-05-07 10:24 | 59.85783 | 10.60886 | 8783 ft | 251 kts | 38° |
| 2026-05-07 10:24 | 59.87100 | 10.63079 | 8477 ft | 249 kts | 38° |
| 2026-05-07 10:25 | 59.88425 | 10.65287 | 8176 ft | 247 kts | 38° |
| 2026-05-07 10:25 | 59.89741 | 10.67483 | 7882 ft | 246 kts | 38° |
| 2026-05-07 10:25 | 59.91049 | 10.69668 | 7620 ft | 244 kts | 38° |
| 2026-05-07 10:25 | 59.92349 | 10.71843 | 7368 ft | 243 kts | 39° |
| 2026-05-07 10:26 | 59.93620 | 10.73967 | 7056 ft | 240 kts | 39° |
| 2026-05-07 10:26 | 59.94899 | 10.76114 | 6632 ft | 240 kts | 39° |
| 2026-05-07 10:26 | 59.96182 | 10.78256 | 6240 ft | 241 kts | 39° |
| 2026-05-07 10:26 | 59.97255 | 10.80837 | 5875 ft | 246 kts | 67° |
| 2026-05-07 10:27 | 59.97626 | 10.84112 | 5642 ft | 238 kts | 83° |
| 2026-05-07 10:27 | 59.97787 | 10.87356 | 5350 ft | 231 kts | 83° |
| 2026-05-07 10:27 | 59.97929 | 10.90502 | 5078 ft | 224 kts | 84° |
| 2026-05-07 10:27 | 59.98069 | 10.93511 | 4844 ft | 217 kts | 84° |
| 2026-05-07 10:28 | 59.98215 | 10.96478 | 4572 ft | 211 kts | 84° |
| 2026-05-07 10:28 | 59.98521 | 10.99247 | 4358 ft | 202 kts | 57° |
| 2026-05-07 10:28 | 59.99607 | 11.00829 | 4091 ft | 194 kts | 14° |
| 2026-05-07 10:28 | 60.00927 | 11.01449 | 3741 ft | 196 kts | 12° |
| 2026-05-07 10:29 | 60.02256 | 11.01957 | 3510 ft | 194 kts | 13° |
| 2026-05-07 10:29 | 60.03524 | 11.02648 | 3281 ft | 187 kts | 16° |
| 2026-05-07 10:29 | 60.04769 | 11.03368 | 3044 ft | 186 kts | 13° |
| 2026-05-07 10:30 | 60.07302 | 11.04843 | 2897 ft | 192 kts | 17° |
| 2026-05-07 10:30 | 60.08537 | 11.05532 | 2659 ft | 177 kts | 14° |
| 2026-05-07 10:30 | 60.09667 | 11.06177 | 2428 ft | 164 kts | 15° |
| 2026-05-07 10:30 | 60.10741 | 11.06797 | 2203 ft | 154 kts | 16° |
| 2026-05-07 10:31 | 60.11710 | 11.07352 | 1998 ft | 142 kts | 15° |
| 2026-05-07 10:31 | 60.12614 | 11.07883 | 1845 ft | 130 kts | 15° |
| 2026-05-07 10:31 | 60.13487 | 11.08392 | 1617 ft | 130 kts | 15° |
| 2026-05-07 10:31 | 60.14353 | 11.08893 | 1405 ft | 129 kts | 16° |
| 2026-05-07 10:32 | 60.15202 | 11.09388 | 1209 ft | 128 kts | 17° |
| 2026-05-07 10:32 | 60.16059 | 11.09887 | 1038 ft | 129 kts | 18° |
| 2026-05-07 10:32 | 60.16912 | 11.10384 | 838 ft | 126 kts | 18° |
| 2026-05-07 10:32 | 60.17756 | 11.10872 | 700 ft | 126 kts | 19° |
| 2026-05-07 10:33 | 60.18509 | 11.11316 | 680 ft | 94 kts | 16° |
| 2026-05-07 10:33 | 60.19021 | 11.11610 | 686 ft | 63 kts | 15° |
| 2026-05-07 10:33 | 60.19275 | 11.11690 | 683 ft | 22 kts | 354° |
| 2026-05-07 10:33 | 60.19370 | 11.11576 | 684 ft | 9 kts | 295° |
| 2026-05-07 10:34 | 60.19395 | 11.11469 | 686 ft | 9 kts | 317° |
| 2026-05-07 10:34 | 60.19451 | 11.11442 | 684 ft | 8 kts | 342° |
| 2026-05-07 10:34 | 60.19479 | 11.11348 | 682 ft | 8 kts | 285° |
| 2026-05-07 10:34 | 60.19496 | 11.11231 | 680 ft | 10 kts | 286° |
| 2026-05-07 10:35 | 60.19517 | 11.11083 | 685 ft | 12 kts | 285° |
| 2026-05-07 10:35 | 60.19540 | 11.10913 | 680 ft | 14 kts | 287° |
| 2026-05-07 10:35 | 60.19570 | 11.10710 | 682 ft | 16 kts | 285° |
| 2026-05-07 10:35 | 60.19601 | 11.10493 | 683 ft | 12 kts | 285° |
| 2026-05-07 10:36 | 60.19623 | 11.10334 | 679 ft | 11 kts | 285° |
| 2026-05-07 10:36 | 60.19636 | 11.10242 | 681 ft | 1 kts | 285° |
| 2026-05-07 10:36 | 60.19638 | 11.10229 | 678 ft | 0 kts | 285° |